createdAt,value
2019-03-05T00:02:14.175Z,6.81
2019-03-05T00:04:45.443Z,6.79
2019-03-05T00:07:16.553Z,6.88
2019-03-05T00:09:47.721Z,6.89
2019-03-05T00:12:18.766Z,6.76
2019-03-05T00:14:49.983Z,6.70
2019-03-05T00:17:21.339Z,6.70
2019-03-05T00:19:52.549Z,6.69
2019-03-05T00:22:23.713Z,6.69
2019-03-05T00:25:12.125Z,6.70
2019-03-05T00:28:25.083Z,6.70
2019-03-05T00:31:12.097Z,6.68
2019-03-05T00:34:20.383Z,6.74
2019-03-05T00:37:09.579Z,6.70
2019-03-05T00:40:32.426Z,6.71
2019-03-05T00:43:53.998Z,6.69
2019-03-05T00:47:14.661Z,6.72
2019-03-05T00:51:00.971Z,6.62
2019-03-05T00:54:32.471Z,6.59
2019-03-05T00:57:21.094Z,6.55
2019-03-05T01:00:32.236Z,6.57
2019-03-05T01:03:22.269Z,6.65
2019-03-05T01:06:25.363Z,6.70
2019-03-05T01:08:57.973Z,6.65
2019-03-05T01:11:29.618Z,6.61
2019-03-05T01:14:01.083Z,6.61
2019-03-05T01:16:34.529Z,6.57
2019-03-05T01:19:05.709Z,6.59
2019-03-05T01:21:36.893Z,6.59
2019-03-05T01:24:08.585Z,6.49
2019-03-05T01:26:39.756Z,6.38
2019-03-05T01:29:10.915Z,6.45
2019-03-05T01:32:06.840Z,6.45
2019-03-05T01:34:52.295Z,6.48
2019-03-05T01:37:23.645Z,6.54
2019-03-05T01:40:13.616Z,6.57
2019-03-05T01:42:44.776Z,6.65
2019-03-05T01:45:16.943Z,6.69
2019-03-05T01:47:48.137Z,6.68
2019-03-05T01:50:19.426Z,6.76
2019-03-05T01:52:50.545Z,6.73
2019-03-05T01:55:21.711Z,6.76
2019-03-05T01:58:11.928Z,6.77
2019-03-05T02:00:43.220Z,6.78
2019-03-05T02:03:14.472Z,6.78
2019-03-05T02:05:45.703Z,6.80
2019-03-05T02:08:16.925Z,6.74
2019-03-05T02:10:48.150Z,6.71
2019-03-05T02:13:19.500Z,6.67
2019-03-05T02:15:50.772Z,6.59
2019-03-05T02:18:24.329Z,6.51
2019-03-05T02:20:55.591Z,6.46
2019-03-05T02:24:02.438Z,6.51
2019-03-05T02:27:41.607Z,6.48
2019-03-05T02:30:32.100Z,6.27
2019-03-05T02:33:30.040Z,5.91
2019-03-05T02:36:47.829Z,5.68
2019-03-05T02:40:16.611Z,5.38
2019-03-05T02:43:32.045Z,5.17
2019-03-05T02:46:41.925Z,4.99
2019-03-05T02:49:58.749Z,4.83
2019-03-05T02:53:04.787Z,4.64
2019-03-05T02:56:03.985Z,4.56
2019-03-05T02:58:32.432Z,4.58
2019-03-05T03:01:25.407Z,4.49
2019-03-05T03:04:00.297Z,4.60
2019-03-05T03:06:50.627Z,4.76
2019-03-05T03:10:13.381Z,4.94
2019-03-05T03:12:45.184Z,4.88
2019-03-05T03:15:18.503Z,4.63
2019-03-05T03:17:50.766Z,4.65
2019-03-05T03:20:23.494Z,4.70
2019-03-05T03:22:54.923Z,4.76
2019-03-05T03:25:26.580Z,4.82
2019-03-05T03:27:57.848Z,4.91
2019-03-05T03:30:31.060Z,4.91
2019-03-05T03:33:02.427Z,4.93
2019-03-05T03:35:33.638Z,4.93
2019-03-05T03:38:04.777Z,4.87
2019-03-05T03:40:35.925Z,4.79
2019-03-05T03:43:07.295Z,4.68
2019-03-05T03:45:38.454Z,4.68
2019-03-05T03:48:09.688Z,4.75
2019-03-05T03:50:40.813Z,4.79
2019-03-05T03:53:12.090Z,4.82
2019-03-05T03:55:43.541Z,4.84
2019-03-05T03:58:14.869Z,4.83
2019-03-05T04:00:46.147Z,4.95
2019-03-05T04:03:17.479Z,5.00
2019-03-05T04:05:48.793Z,4.96
2019-03-05T04:08:20.155Z,5.00
2019-03-05T04:10:51.405Z,5.06
2019-03-05T04:13:22.593Z,5.09
2019-03-05T04:15:53.897Z,5.11
2019-03-05T04:18:25.174Z,5.10
2019-03-05T04:20:56.414Z,5.18
2019-03-05T04:23:27.591Z,5.17
2019-03-05T04:25:58.733Z,5.04
2019-03-05T04:28:30.123Z,5.02
2019-03-05T04:31:01.279Z,5.06
2019-03-05T04:33:32.539Z,5.15
2019-03-05T04:36:03.757Z,5.21
2019-03-05T04:38:35.032Z,5.27
2019-03-05T04:41:06.254Z,5.22
2019-03-05T04:43:37.498Z,5.27
2019-03-05T04:46:27.465Z,5.26
2019-03-05T04:49:32.449Z,5.30
2019-03-05T04:52:06.276Z,5.42
2019-03-05T04:54:37.504Z,5.46
2019-03-05T04:57:08.740Z,5.46
2019-03-05T04:59:39.922Z,5.43
2019-03-05T05:02:11.048Z,5.51
2019-03-05T05:04:42.173Z,5.53
2019-03-05T05:07:13.353Z,5.58
2019-03-05T05:09:44.474Z,5.60
2019-03-05T05:12:15.743Z,5.59
2019-03-05T05:14:46.933Z,5.60
2019-03-05T05:17:18.090Z,5.53
2019-03-05T05:19:49.266Z,5.60
2019-03-05T05:22:20.479Z,5.54
2019-03-05T05:24:51.658Z,5.63
2019-03-05T05:27:22.821Z,5.60
2019-03-05T05:29:54.050Z,5.67
2019-03-05T05:32:25.255Z,5.69
2019-03-05T05:34:56.490Z,5.70
2019-03-05T05:37:27.599Z,5.67
2019-03-05T05:40:27.737Z,5.74
2019-03-05T05:42:59.057Z,5.76
2019-03-05T05:45:58.378Z,5.76
2019-03-05T05:48:29.584Z,5.75
2019-03-05T05:51:00.961Z,5.73
2019-03-05T05:53:32.175Z,5.82
2019-03-05T05:56:03.436Z,5.84
2019-03-05T05:58:34.554Z,5.84
2019-03-05T06:01:09.943Z,5.87
2019-03-05T06:03:41.136Z,5.84
2019-03-05T06:06:12.304Z,5.80
2019-03-05T06:08:43.509Z,5.81
2019-03-05T06:11:14.740Z,5.76
2019-03-05T06:13:46.023Z,5.75
2019-03-05T06:16:17.290Z,5.67
2019-03-05T06:18:48.521Z,5.69
2019-03-05T06:21:19.610Z,5.77
2019-03-05T06:23:50.847Z,5.82
2019-03-05T06:26:22.061Z,5.92
2019-03-05T06:28:53.332Z,5.91
2019-03-05T06:32:02.571Z,5.91
2019-03-05T06:34:33.861Z,5.93
2019-03-05T06:37:05.147Z,5.99
2019-03-05T06:39:36.388Z,5.98
2019-03-05T06:42:07.847Z,6.04
2019-03-05T06:44:39.060Z,6.01
2019-03-05T06:47:10.228Z,6.02
2019-03-05T06:49:41.447Z,6.05
2019-03-05T06:52:12.802Z,6.05
2019-03-05T06:54:44.015Z,6.03
2019-03-05T06:57:15.371Z,6.04
2019-03-05T06:59:46.593Z,6.02
2019-03-05T07:02:18.216Z,6.03
2019-03-05T07:04:58.640Z,6.04
2019-03-05T07:07:33.638Z,6.04
2019-03-05T07:10:36.604Z,6.04
2019-03-05T07:13:18.232Z,6.04
2019-03-05T07:17:11.853Z,5.94
2019-03-05T07:20:57.475Z,5.96
2019-03-05T07:24:35.841Z,5.95
2019-03-05T07:27:07.277Z,5.89
2019-03-05T07:29:39.921Z,5.94
2019-03-05T07:32:11.092Z,5.89
2019-03-05T07:34:45.356Z,5.94
2019-03-05T07:37:16.780Z,5.85
2019-03-05T07:40:07.775Z,5.86
2019-03-05T07:42:38.948Z,5.80
2019-03-05T07:45:12.247Z,5.84
2019-03-05T07:47:43.552Z,5.79
2019-03-05T07:50:15.007Z,5.66
2019-03-05T07:52:46.234Z,5.68
2019-03-05T07:55:19.068Z,5.63
2019-03-05T07:57:50.309Z,5.69
2019-03-05T08:00:23.134Z,5.77
2019-03-05T08:02:54.354Z,5.90
2019-03-05T08:05:25.502Z,5.84
2019-03-05T08:07:56.745Z,5.77
2019-03-05T08:10:33.697Z,5.77
2019-03-05T08:13:59.914Z,5.83
2019-03-05T08:16:34.545Z,5.90
2019-03-05T08:19:05.807Z,5.87
2019-03-05T08:21:37.382Z,5.83
2019-03-05T08:24:08.659Z,5.73
2019-03-05T08:26:39.939Z,5.67
2019-03-05T08:29:11.173Z,5.66
2019-03-05T08:31:42.342Z,5.55
2019-03-05T08:34:13.574Z,5.56
2019-03-05T08:36:50.789Z,5.57
2019-03-05T08:39:22.032Z,5.56
2019-03-05T08:41:53.210Z,5.56
2019-03-05T08:44:24.326Z,5.53
2019-03-05T08:46:55.615Z,5.55
2019-03-05T08:49:26.819Z,5.64
2019-03-05T08:51:58.134Z,5.65
2019-03-05T08:54:29.295Z,5.69
2019-03-05T08:57:01.816Z,5.69
2019-03-05T08:59:33.038Z,5.79
2019-03-05T09:02:05.420Z,5.89
2019-03-05T09:04:37.977Z,5.94
2019-03-05T09:07:09.231Z,6.10
2019-03-05T09:09:40.473Z,6.15
2019-03-05T09:12:12.001Z,6.16
2019-03-05T09:14:43.239Z,6.18
2019-03-05T09:17:15.261Z,6.26
2019-03-05T09:19:46.407Z,6.36
2019-03-05T09:22:17.629Z,6.38
2019-03-05T09:24:48.902Z,6.67
2019-03-05T09:27:20.086Z,6.78
2019-03-05T09:29:51.597Z,6.73
2019-03-05T09:32:22.741Z,6.41
2019-03-05T09:34:53.999Z,6.18
2019-03-05T09:37:25.182Z,6.18
2019-03-05T09:39:57.411Z,6.28
2019-03-05T09:42:39.315Z,6.41
2019-03-05T09:45:01.539Z,6.67
2019-03-05T09:47:32.799Z,6.65
2019-03-05T09:50:04.051Z,6.55
2019-03-05T09:52:35.444Z,6.66
2019-03-05T09:55:07.871Z,6.58
2019-03-05T09:57:40.961Z,6.40
2019-03-05T10:00:18.612Z,6.58
2019-03-05T10:02:50.158Z,6.96
2019-03-05T10:05:21.547Z,7.38
2019-03-05T10:07:52.904Z,7.65
2019-03-05T10:10:25.798Z,7.83
2019-03-05T10:12:59.160Z,7.77
2019-03-05T10:15:31.061Z,7.93
2019-03-05T10:18:12.136Z,7.98
2019-03-05T10:20:35.433Z,7.78
2019-03-05T10:23:07.489Z,7.70
2019-03-05T10:25:38.703Z,7.99
2019-03-05T10:28:10.314Z,8.22
2019-03-05T10:30:43.023Z,8.49
2019-03-05T10:33:16.723Z,8.57
2019-03-05T10:35:48.099Z,8.82
2019-03-05T10:38:19.412Z,8.85
2019-03-05T10:40:51.600Z,9.00
2019-03-05T10:43:23.785Z,9.08
2019-03-05T10:45:55.202Z,9.23
2019-03-05T10:48:26.759Z,9.00
2019-03-05T10:50:58.710Z,8.85
2019-03-05T10:53:30.396Z,8.86
2019-03-05T10:56:01.792Z,8.87
2019-03-05T10:58:51.944Z,9.00
2019-03-05T11:01:43.072Z,8.87
2019-03-05T11:04:14.284Z,8.67
2019-03-05T11:06:45.623Z,8.86
2019-03-05T11:09:20.768Z,8.77
2019-03-05T11:11:52.113Z,8.69
2019-03-05T11:14:23.437Z,8.50
2019-03-05T11:16:54.820Z,8.79
2019-03-05T11:19:26.112Z,9.05
2019-03-05T11:21:57.364Z,9.07
2019-03-05T11:24:28.824Z,9.20
2019-03-05T11:27:00.224Z,9.03
2019-03-05T11:29:31.538Z,9.15
2019-03-05T11:32:02.872Z,9.23
2019-03-05T11:34:34.326Z,9.43
2019-03-05T11:37:12.387Z,9.14
2019-03-05T11:39:51.000Z,8.87
2019-03-05T11:42:22.173Z,8.81
2019-03-05T11:45:03.935Z,8.64
2019-03-05T11:47:26.391Z,8.93
2019-03-05T11:49:57.659Z,9.16
2019-03-05T11:52:28.936Z,9.31
2019-03-05T11:55:00.355Z,9.52
2019-03-05T11:57:31.642Z,9.53
2019-03-05T12:00:03.264Z,9.09
2019-03-05T12:02:34.539Z,9.01
2019-03-05T12:05:06.420Z,9.15
2019-03-05T12:07:59.327Z,8.93
2019-03-05T12:10:36.428Z,9.02
2019-03-05T12:13:10.579Z,9.12
2019-03-05T12:15:47.195Z,9.38
2019-03-05T12:18:19.373Z,9.89
2019-03-05T12:21:01.777Z,10.11
2019-03-05T12:23:33.131Z,10.14
2019-03-05T12:26:04.682Z,10.23
2019-03-05T12:28:35.963Z,10.37
2019-03-05T12:31:07.817Z,10.58
2019-03-05T12:33:39.205Z,10.59
2019-03-05T12:36:10.683Z,10.28
2019-03-05T12:38:41.855Z,10.42
2019-03-05T12:41:13.276Z,10.68
2019-03-05T12:43:45.585Z,11.03
2019-03-05T12:46:16.871Z,11.15
2019-03-05T12:48:48.138Z,10.89
2019-03-05T12:51:19.504Z,10.75
2019-03-05T12:53:50.880Z,10.39
2019-03-05T12:56:24.064Z,10.52
2019-03-05T12:58:55.149Z,10.67
2019-03-05T13:01:26.504Z,10.68
2019-03-05T13:03:57.835Z,11.08
2019-03-05T13:06:29.205Z,11.35
2019-03-05T13:09:00.470Z,11.21
2019-03-05T13:11:31.783Z,11.24
2019-03-05T13:14:06.096Z,11.11
2019-03-05T13:16:39.436Z,11.20
2019-03-05T13:19:09.858Z,11.33
2019-03-05T13:21:44.314Z,11.33
2019-03-05T13:24:15.152Z,11.13
2019-03-05T13:26:46.448Z,11.01
2019-03-05T13:29:19.290Z,10.97
2019-03-05T13:31:50.620Z,10.85
2019-03-05T13:34:21.794Z,10.64
2019-03-05T13:36:53.001Z,10.43
2019-03-05T13:39:24.425Z,10.81
2019-03-05T13:41:55.758Z,11.04
2019-03-05T13:44:37.161Z,11.40
2019-03-05T13:47:10.209Z,11.68
2019-03-05T13:50:31.240Z,11.89
2019-03-05T13:54:11.789Z,11.86
2019-03-05T13:57:46.201Z,11.59
2019-03-05T14:00:17.874Z,11.18
2019-03-05T14:03:22.874Z,11.08
2019-03-05T14:06:57.270Z,10.55
2019-03-05T14:09:25.678Z,10.19
2019-03-05T14:11:56.862Z,10.44
2019-03-05T14:14:32.114Z,10.67
2019-03-05T14:17:23.472Z,10.85
2019-03-05T14:20:16.099Z,10.85
2019-03-05T14:22:47.747Z,10.68
2019-03-05T14:25:19.013Z,10.70
2019-03-05T14:27:52.971Z,10.45
2019-03-05T14:30:28.406Z,10.13
2019-03-05T14:33:00.946Z,10.05
2019-03-05T14:35:35.753Z,10.12
2019-03-05T14:38:08.336Z,10.18
2019-03-05T14:40:40.818Z,10.18
2019-03-05T14:43:12.230Z,10.16
2019-03-05T14:45:43.546Z,10.37
2019-03-05T14:48:14.910Z,10.82
2019-03-05T14:50:46.040Z,11.09
2019-03-05T14:53:17.535Z,11.15
2019-03-05T14:55:49.095Z,10.81
2019-03-05T14:58:20.321Z,10.83
2019-03-05T15:00:51.653Z,10.79
2019-03-05T15:03:22.973Z,10.64
2019-03-05T15:05:56.366Z,10.59
2019-03-05T15:08:27.823Z,10.57
2019-03-05T15:10:59.058Z,10.71
2019-03-05T15:13:30.386Z,10.71
2019-03-05T15:16:01.743Z,10.84
2019-03-05T15:18:33.037Z,10.87
2019-03-05T15:21:04.247Z,10.65
2019-03-05T15:23:35.620Z,10.48
2019-03-05T15:26:07.036Z,10.44
2019-03-05T15:28:38.258Z,10.43
2019-03-05T15:31:09.597Z,10.40
2019-03-05T15:33:40.851Z,10.22
2019-03-05T15:36:23.786Z,10.26
2019-03-05T15:38:47.463Z,10.23
2019-03-05T15:41:18.801Z,10.18
2019-03-05T15:43:50.053Z,10.23
2019-03-05T15:46:21.333Z,10.13
2019-03-05T15:48:52.762Z,9.90
2019-03-05T15:51:24.002Z,9.94
2019-03-05T15:53:55.196Z,9.81
2019-03-05T15:56:26.506Z,9.71
2019-03-05T15:58:57.741Z,9.60
2019-03-05T16:01:29.000Z,9.42
2019-03-05T16:04:00.214Z,9.38
2019-03-05T16:06:34.067Z,9.31
2019-03-05T16:09:05.266Z,9.41
2019-03-05T16:11:36.526Z,9.44
2019-03-05T16:14:07.780Z,9.50
2019-03-05T16:16:41.846Z,9.52
2019-03-05T16:19:16.595Z,9.54
2019-03-05T16:21:46.213Z,9.55
2019-03-05T16:24:17.445Z,9.58
2019-03-05T16:26:48.647Z,9.87
2019-03-05T16:29:20.861Z,9.98
2019-03-05T16:32:23.056Z,9.77
2019-03-05T16:35:18.513Z,9.62
2019-03-05T16:38:06.583Z,9.35
2019-03-05T16:40:55.856Z,9.01
2019-03-05T16:43:49.188Z,8.86
2019-03-05T16:46:41.914Z,8.87
2019-03-05T16:49:31.952Z,9.00
2019-03-05T16:52:40.113Z,8.99
2019-03-05T16:55:28.656Z,8.88
2019-03-05T16:58:18.678Z,8.84
2019-03-05T17:01:07.312Z,8.67
2019-03-05T17:04:12.669Z,8.60
2019-03-05T17:07:17.900Z,8.61
2019-03-05T17:10:02.454Z,8.57
2019-03-05T17:12:34.029Z,8.76
2019-03-05T17:15:22.751Z,8.80
2019-03-05T17:17:53.975Z,8.69
2019-03-05T17:20:25.095Z,8.58
2019-03-05T17:22:56.452Z,8.50
2019-03-05T17:25:27.804Z,8.36
2019-03-05T17:27:59.146Z,8.27
2019-03-05T17:30:30.391Z,7.97
2019-03-05T17:33:01.740Z,7.92
2019-03-05T17:35:33.256Z,7.85
2019-03-05T17:38:04.734Z,7.90
2019-03-05T17:40:35.960Z,7.91
2019-03-05T17:43:07.597Z,7.99
2019-03-05T17:45:39.232Z,7.90
2019-03-05T17:48:10.538Z,7.77
2019-03-05T17:50:44.696Z,7.66
2019-03-05T17:53:18.927Z,7.41
2019-03-05T17:55:50.518Z,7.23
2019-03-05T17:58:21.950Z,7.10
2019-03-05T18:00:53.942Z,7.01
2019-03-05T18:03:25.202Z,7.10
2019-03-05T18:05:56.776Z,6.99
2019-03-05T18:08:28.022Z,7.05
2019-03-05T18:11:00.975Z,7.06
2019-03-05T18:13:32.478Z,7.04
2019-03-05T18:16:03.870Z,6.86
2019-03-05T18:18:38.419Z,6.80
2019-03-05T18:21:09.719Z,6.56
2019-03-05T18:23:42.682Z,6.56
2019-03-05T18:26:14.299Z,6.43
2019-03-05T18:28:45.602Z,6.30
2019-03-05T18:31:16.801Z,6.47
2019-03-05T18:33:48.039Z,6.29
2019-03-05T18:36:19.296Z,6.26
2019-03-05T18:38:50.551Z,6.40
2019-03-05T18:41:21.774Z,6.38
2019-03-05T18:43:53.046Z,6.58
2019-03-05T18:46:24.283Z,6.56
2019-03-05T18:48:55.698Z,6.51
2019-03-05T18:51:27.244Z,6.62
2019-03-05T18:53:58.578Z,6.76
2019-03-05T18:56:29.935Z,7.04
2019-03-05T18:59:01.199Z,7.18
2019-03-05T19:01:32.470Z,7.32
2019-03-05T19:04:06.019Z,7.40
2019-03-05T19:06:37.412Z,7.38
2019-03-05T19:09:09.621Z,7.35
2019-03-05T19:11:41.022Z,7.25
2019-03-05T19:14:12.247Z,7.29
2019-03-05T19:16:43.509Z,7.22
2019-03-05T19:19:14.755Z,7.26
2019-03-05T19:21:46.158Z,7.10
2019-03-05T19:24:17.360Z,7.21
2019-03-05T19:26:48.663Z,7.12
2019-03-05T19:29:20.145Z,7.14
2019-03-05T19:31:52.864Z,7.07
2019-03-05T19:34:28.298Z,7.04
2019-03-05T19:37:01.649Z,6.88
2019-03-05T19:39:34.562Z,6.89
2019-03-05T19:42:09.827Z,6.80
2019-03-05T19:44:42.824Z,6.74
2019-03-05T19:47:14.115Z,6.80
2019-03-05T19:49:45.398Z,6.66
2019-03-05T19:52:16.866Z,6.60
2019-03-05T19:54:48.158Z,6.64
2019-03-05T19:57:19.451Z,6.62
2019-03-05T19:59:50.860Z,6.52
2019-03-05T20:02:22.367Z,6.41
2019-03-05T20:04:53.658Z,6.39
2019-03-05T20:07:26.742Z,6.26
2019-03-05T20:09:59.955Z,6.10
2019-03-05T20:12:34.059Z,6.07
2019-03-05T20:15:06.093Z,6.01
2019-03-05T20:17:37.454Z,5.93
2019-03-05T20:20:10.509Z,5.94
2019-03-05T20:22:41.917Z,5.87
2019-03-05T20:25:18.863Z,5.97
2019-03-05T20:27:51.557Z,5.82
2019-03-05T20:30:27.034Z,5.79
2019-03-05T20:32:58.240Z,5.89
2019-03-05T20:35:29.562Z,5.82
2019-03-05T20:38:00.877Z,5.83
2019-03-05T20:40:32.368Z,5.57
2019-03-05T20:43:03.809Z,5.45
2019-03-05T20:45:35.233Z,5.57
2019-03-05T20:48:07.172Z,5.40
2019-03-05T20:50:38.536Z,5.32
2019-03-05T20:53:09.803Z,5.17
2019-03-05T20:55:41.054Z,5.28
2019-03-05T20:58:12.276Z,5.20
2019-03-05T21:00:44.036Z,5.10
2019-03-05T21:03:15.342Z,5.13
2019-03-05T21:05:46.735Z,5.11
2019-03-05T21:08:18.040Z,5.08
2019-03-05T21:10:51.169Z,5.11
2019-03-05T21:13:22.611Z,4.99
2019-03-05T21:15:54.066Z,4.99
2019-03-05T21:18:25.670Z,4.92
2019-03-05T21:20:57.079Z,4.97
2019-03-05T21:23:28.359Z,5.46
2019-03-05T21:25:59.655Z,5.47
2019-03-05T21:28:33.420Z,5.34
2019-03-05T21:31:04.763Z,5.26
2019-03-05T21:33:36.072Z,5.30
2019-03-05T21:36:08.207Z,5.49
2019-03-05T21:38:39.521Z,5.61
2019-03-05T21:41:11.144Z,5.29
2019-03-05T21:43:42.676Z,5.23
2019-03-05T21:46:18.551Z,5.39
2019-03-05T21:48:49.893Z,5.50
2019-03-05T21:51:21.161Z,5.22
2019-03-05T21:53:52.496Z,5.27
2019-03-05T21:56:23.695Z,5.09
2019-03-05T21:58:54.993Z,5.19
2019-03-05T22:01:26.283Z,4.93
2019-03-05T22:04:16.529Z,4.82
2019-03-05T22:06:47.775Z,4.60
2019-03-05T22:09:21.466Z,4.90
2019-03-05T22:11:52.827Z,4.72
2019-03-05T22:14:24.146Z,4.70
2019-03-05T22:16:55.504Z,4.78
2019-03-05T22:19:26.912Z,4.90
2019-03-05T22:21:58.165Z,4.61
2019-03-05T22:24:29.412Z,4.76
2019-03-05T22:27:00.654Z,4.63
2019-03-05T22:29:31.837Z,4.53
2019-03-05T22:32:03.387Z,4.77
2019-03-05T22:34:34.606Z,4.68
2019-03-05T22:37:09.133Z,4.43
2019-03-05T22:39:40.369Z,4.52
2019-03-05T22:42:11.790Z,4.60
2019-03-05T22:44:43.481Z,4.56
2019-03-05T22:47:14.776Z,4.65
2019-03-05T22:49:45.994Z,4.62
2019-03-05T22:52:17.969Z,4.69
2019-03-05T22:54:50.301Z,4.73
2019-03-05T22:57:21.435Z,4.98
2019-03-05T22:59:52.667Z,5.23
2019-03-05T23:02:23.957Z,5.40
2019-03-05T23:04:55.884Z,5.46
2019-03-05T23:07:30.217Z,5.46
2019-03-05T23:10:01.465Z,5.55
2019-03-05T23:12:32.930Z,5.47
2019-03-05T23:15:04.444Z,5.59
2019-03-05T23:17:35.684Z,5.76
2019-03-05T23:20:07.353Z,5.67
2019-03-05T23:22:38.819Z,5.85
2019-03-05T23:25:10.631Z,5.89
2019-03-05T23:27:42.017Z,5.89
2019-03-05T23:30:14.730Z,5.93
2019-03-05T23:32:48.437Z,5.93
2019-03-05T23:35:19.792Z,5.99
2019-03-05T23:37:51.277Z,6.03
2019-03-05T23:40:22.699Z,6.12
2019-03-05T23:42:54.054Z,6.18
2019-03-05T23:45:25.398Z,6.24
2019-03-05T23:47:56.661Z,6.13
2019-03-05T23:50:27.895Z,6.23
2019-03-05T23:52:59.493Z,6.39
2019-03-05T23:55:31.431Z,6.36
2019-03-05T23:58:02.793Z,6.35
